Time;durP1;ratioP1;P1;durP2;ratioP2;P2;SDS_P1;SDS_P2;PMS_P1;PMS_P2;Temp;Humidity;BMP_temperature;BMP_pressure;BME280_temperature;BME280_humidity;BME280_pressure;Samples;Min_cycle;Max_cycle;Signal;HPM_P1;HPM_P2
2022/11/07 00:01:36;;;;;;;1.92;1.83;;;12.40;54.20;;;;;;20602;6723;311473;-85
2022/11/07 00:04:12;;;;;;;2.10;1.73;;;12.40;54.10;;;;;;20948;6729;127078;-86
2022/11/07 00:06:47;;;;;;;1.80;1.70;;;12.30;53.90;;;;;;20745;6729;294648;-85
2022/11/07 00:09:23;;;;;;;2.03;1.83;;;12.70;53.90;;;;;;20738;6729;305123;-85
2022/11/07 00:11:59;;;;;;;1.70;1.60;;;12.70;53.90;;;;;;20969;6723;117285;-85
2022/11/07 00:14:35;;;;;;;1.67;1.58;;;12.60;53.70;;;;;;20763;6729;335820;-86
2022/11/07 00:17:10;;;;;;;1.20;1.10;;;12.70;53.90;;;;;;20922;6729;116901;-85
2022/11/07 00:19:48;;;;;;;1.20;1.20;;;12.60;53.80;;;;;;20902;6729;117949;-85
2022/11/07 00:22:22;;;;;;;1.50;1.50;;;12.30;54.10;;;;;;20874;6734;122330;-85
2022/11/07 00:24:57;;;;;;;1.50;1.40;;;12.10;54.40;;;;;;20735;6719;280829;-86
2022/11/07 00:27:33;;;;;;;1.33;1.30;;;12.20;55.10;;;;;;20729;6719;305640;-85
2022/11/07 00:30:08;;;;;;;1.20;1.20;;;12.60;54.90;;;;;;20883;6719;116653;-85
2022/11/07 00:32:44;;;;;;;1.50;1.40;;;12.50;54.60;;;;;;20691;6730;306213;-86
2022/11/07 00:35:20;;;;;;;1.20;1.20;;;12.60;55.00;;;;;;20930;6731;117371;-85
2022/11/07 00:37:55;;;;;;;3.17;1.30;;;12.50;54.70;;;;;;20915;6731;116938;-85
2022/11/07 00:40:31;;;;;;;1.70;1.60;;;12.30;54.90;;;;;;20640;6731;307037;-87
2022/11/07 00:43:06;;;;;;;1.20;1.10;;;12.40;55.80;;;;;;20949;6734;116821;-85
2022/11/07 00:45:42;;;;;;;1.50;1.40;;;12.40;55.30;;;;;;20694;6732;305828;-87
2022/11/07 00:48:18;;;;;;;1.30;1.20;;;12.80;55.00;;;;;;20684;6731;280037;-85
2022/11/07 00:51:04;;;;;;;1.35;1.25;;;12.80;55.00;;;;;;20640;6728;337059;-85
2022/11/07 00:53:30;;;;;;;1.50;1.40;;;12.80;54.10;;;;;;20881;6756;116945;-86
2022/11/07 00:56:06;;;;;;;2.20;1.10;;;12.80;54.10;;;;;;20921;6742;117177;-87
2022/11/07 00:58:43;;;;;;;1.00;0.90;;;12.50;54.50;;;;;;20929;6742;117356;-85
2022/11/07 01:01:21;;;;;;;1.20;1.20;;;12.20;55.40;;;;;;20601;6742;337085;-85
2022/11/07 01:06:52;;;;;;;1.37;1.27;;;12.50;55.10;;;;;;21024;6718;116646;-85
2022/11/07 01:09:27;;;;;;;1.30;1.13;;;12.30;54.80;;;;;;20942;6745;120043;-85
2022/11/07 01:12:04;;;;;;;1.40;1.10;;;12.00;55.30;;;;;;21007;6717;123237;-87
2022/11/07 01:14:39;;;;;;;1.50;1.10;;;11.70;55.70;;;;;;21031;6717;116353;-85
2022/11/07 01:17:14;;;;;;;1.30;1.20;;;11.50;56.10;;;;;;20881;6745;117077;-86
2022/11/07 01:19:50;;;;;;;1.10;1.10;;;11.40;56.50;;;;;;20715;6739;307507;-86
2022/11/07 01:22:25;;;;;;;1.00;1.00;;;11.60;57.60;;;;;;20877;6745;119319;-87
2022/11/07 01:25:01;;;;;;;1.00;1.00;;;11.70;57.20;;;;;;20754;6738;340396;-85
2022/11/07 01:27:37;;;;;;;1.13;1.13;;;11.90;57.40;;;;;;20964;6722;115953;-86
2022/11/07 01:30:12;;;;;;;1.30;1.20;;;12.00;56.90;;;;;;20894;6727;117022;-88
2022/11/07 01:32:49;;;;;;;1.43;0.80;;;11.60;57.20;;;;;;20972;6722;117795;-87
2022/11/07 01:35:24;;;;;;;1.10;1.00;;;11.70;57.20;;;;;;21002;6722;116820;-86
2022/11/07 01:38:03;;;;;;;0.80;0.80;;;11.50;57.40;;;;;;20990;6725;119570;-85
2022/11/07 01:41:19;;;;;;;1.27;1.03;;;11.40;57.60;;;;;;20890;6737;116436;-85
2022/11/07 01:43:11;;;;;;;1.00;1.00;;;11.30;57.80;;;;;;20708;6778;117062;-85
2022/11/07 01:45:46;;;;;;;1.35;1.17;;;11.20;58.00;;;;;;20707;6737;279640;-85
2022/11/07 01:48:25;;;;;;;1.53;1.07;;;11.50;58.80;;;;;;20904;6737;117527;-85
2022/11/07 01:51:04;;;;;;;1.30;1.20;;;11.60;58.20;;;;;;20754;6737;335566;-96
2022/11/07 01:53:33;;;;;;;1.10;1.10;;;11.80;58.20;;;;;;20714;6737;304819;-87
2022/11/07 01:56:10;;;;;;;1.17;1.17;;;12.50;56.90;;;;;;20666;6744;307068;-85
2022/11/07 01:58:51;;;;;;;1.50;1.07;;;12.50;56.90;;;;;;20970;6737;117452;-87
2022/11/07 02:01:23;;;;;;;1.08;1.08;;;12.40;56.80;;;;;;20624;6744;340731;-87
2022/11/07 02:03:59;;;;;;;0.90;0.90;;;12.40;56.80;;;;;;20971;6737;117713;-85
2022/11/07 02:06:41;;;;;;;0.90;0.90;;;12.30;56.70;;;;;;20915;6737;117386;-86
2022/11/07 02:09:16;;;;;;;1.57;1.30;;;12.00;57.10;;;;;;20790;6722;304614;-86
2022/11/07 02:11:53;;;;;;;1.27;1.27;;;12.10;57.40;;;;;;20739;6799;117490;-87
2022/11/07 02:14:29;;;;;;;1.40;1.30;;;12.10;57.20;;;;;;20878;6754;116857;-85
2022/11/07 02:17:04;;;;;;;1.30;1.23;;;11.90;57.60;;;;;;20681;6737;309440;-87
2022/11/07 02:19:47;;;;;;;1.23;1.13;;;12.00;57.40;;;;;;20901;6729;116885;-85
2022/11/07 02:22:29;;;;;;;1.33;1.23;;;12.00;57.40;;;;;;20825;6742;116921;-85
2022/11/07 02:25:04;;;;;;;1.07;1.07;;;11.80;57.60;;;;;;20897;6752;116866;-86
2022/11/07 02:27:40;;;;;;;1.30;0.93;;;11.70;58.00;;;;;;20846;6754;117527;-85
2022/11/07 02:30:16;;;;;;;1.20;1.20;;;11.50;58.20;;;;;;20805;6751;117467;-85
2022/11/07 02:33:02;;;;;;;1.57;1.30;;;11.40;58.30;;;;;;20682;6745;277054;-85
2022/11/07 02:35:38;;;;;;;1.73;1.37;;;11.70;58.30;;;;;;20931;6725;116833;-84
2022/11/07 02:38:20;;;;;;;1.40;1.30;;;11.70;58.00;;;;;;20864;6740;117658;-85
2022/11/07 02:41:03;;;;;;;1.17;1.17;;;11.60;58.30;;;;;;20789;6734;122221;-83
2022/11/07 02:43:42;;;;;;;1.30;1.20;;;11.50;58.20;;;;;;20870;6746;118012;-86
2022/11/07 02:46:18;;;;;;;1.33;1.30;;;11.50;58.50;;;;;;20868;6740;117635;-85
2022/11/07 02:48:53;;;;;;;1.90;1.40;;;11.50;58.70;;;;;;20667;6739;278336;-86
2022/11/07 02:51:29;;;;;;;1.20;1.20;;;11.70;58.80;;;;;;20760;6736;116033;-85
2022/11/07 02:54:07;;;;;;;1.20;1.20;;;11.80;58.30;;;;;;20847;6757;117127;-84
2022/11/07 02:56:41;;;;;;;1.10;1.00;;;11.60;59.00;;;;;;20909;6742;117161;-84
2022/11/07 02:59:16;;;;;;;1.50;1.40;;;11.60;58.50;;;;;;20880;6751;116577;-86
2022/11/07 03:01:52;;;;;;;2.05;1.30;;;11.50;58.60;;;;;;20697;6742;277446;-84
2022/11/07 03:04:29;;;;;;;1.50;1.40;;;11.80;58.50;;;;;;20660;6739;311475;-84
2022/11/07 03:07:04;;;;;;;2.07;1.20;;;12.20;57.50;;;;;;20648;6748;277345;-86
2022/11/07 03:09:40;;;;;;;1.70;1.40;;;12.60;56.60;;;;;;20684;6733;339041;-85
2022/11/07 03:12:16;;;;;;;1.77;1.40;;;12.80;55.70;;;;;;20925;6733;117004;-86
2022/11/07 03:14:51;;;;;;;2.13;1.30;;;12.70;55.70;;;;;;20910;6748;116984;-85
2022/11/07 03:17:27;;;;;;;1.50;1.40;;;12.40;56.10;;;;;;20889;6755;117366;-84
2022/11/07 03:20:02;;;;;;;2.00;1.65;;;12.10;56.60;;;;;;20645;6739;308339;-85
2022/11/07 03:22:38;;;;;;;1.60;1.40;;;12.20;56.80;;;;;;20914;6745;119424;-84
2022/11/07 03:25:14;;;;;;;1.60;1.40;;;12.30;56.50;;;;;;20749;6730;304659;-85
2022/11/07 03:27:50;;;;;;;1.63;1.50;;;12.30;56.50;;;;;;20712;6730;277093;-85
2022/11/07 03:30:25;;;;;;;2.05;1.40;;;12.60;55.90;;;;;;20544;6746;336894;-86
2022/11/07 03:33:01;;;;;;;1.33;1.23;;;12.80;55.30;;;;;;20955;6744;67141;-86
2022/11/07 03:35:37;;;;;;;1.23;1.13;;;12.70;55.40;;;;;;21021;6729;115837;-86
2022/11/07 03:38:12;;;;;;;1.50;1.40;;;12.30;55.90;;;;;;21009;6722;117427;-87
2022/11/07 03:40:54;;;;;;;1.43;1.30;;;12.10;56.50;;;;;;20791;6737;116554;-85
2022/11/07 03:43:33;;;;;;;1.50;1.30;;;11.80;56.70;;;;;;20849;6744;117741;-96
2022/11/07 03:46:00;;;;;;;1.43;1.33;;;11.50;57.50;;;;;;20963;6729;117051;-86
2022/11/07 03:48:36;;;;;;;1.33;1.30;;;11.50;57.50;;;;;;20911;6737;117223;-85
2022/11/07 03:51:11;;;;;;;2.53;1.37;;;11.40;57.70;;;;;;20826;6737;117779;-86
2022/11/07 03:53:47;;;;;;;1.87;1.40;;;11.40;58.00;;;;;;20734;6722;334576;-85
2022/11/07 03:56:22;;;;;;;2.00;1.77;;;11.60;58.40;;;;;;20668;6737;280699;-85
2022/11/07 03:58:58;;;;;;;1.60;1.43;;;12.10;57.80;;;;;;20560;6759;307016;-86
2022/11/07 04:01:33;;;;;;;1.37;1.30;;;12.40;56.80;;;;;;20582;6728;336199;-85
2022/11/07 04:04:11;;;;;;;1.60;1.50;;;12.70;56.10;;;;;;20735;6730;275817;-86
2022/11/07 04:06:46;;;;;;;1.50;1.40;;;13.00;55.50;;;;;;20961;6741;116664;-96
2022/11/07 04:09:22;;;;;;;2.53;1.53;;;12.80;55.50;;;;;;20907;6742;116203;-85
2022/11/07 04:17:50;;;;;;;1.10;1.10;;;12.20;56.40;;;;;;20925;6734;118829;-87
2022/11/07 04:20:26;;;;;;;1.23;1.13;;;12.10;56.30;;;;;;20824;6734;120268;-85
2022/11/07 04:23:01;;;;;;;1.73;1.60;;;12.00;56.80;;;;;;20685;6732;297106;-84
2022/11/07 04:28:33;;;;;;;1.55;1.45;;;12.40;57.00;;;;;;20704;6740;307546;-85
2022/11/07 04:31:08;;;;;;;1.80;1.27;;;12.40;56.90;;;;;;20604;6742;120539;-87
2022/11/07 04:33:44;;;;;;;1.65;1.30;;;12.40;56.70;;;;;;20559;6782;284297;-86
2022/11/07 04:36:20;;;;;;;1.20;1.17;;;12.50;56.70;;;;;;20863;6752;117280;-85
2022/11/07 04:38:55;;;;;;;1.23;1.10;;;12.50;56.60;;;;;;20874;6759;117038;-86
2022/11/07 04:41:31;;;;;;;2.00;1.40;;;12.30;56.90;;;;;;20619;6735;282893;-87
2022/11/07 04:44:07;;;;;;;1.60;1.20;;;12.80;56.40;;;;;;20676;6745;310935;-85
2022/11/07 04:46:43;;;;;;;1.53;1.30;;;12.80;56.40;;;;;;20928;6729;117587;-85
2022/11/07 04:49:18;;;;;;;0.97;0.97;;;12.80;56.20;;;;;;20861;6743;120638;-85
2022/11/07 04:51:56;;;;;;;2.08;1.23;;;12.50;56.40;;;;;;20427;6806;310727;-85
2022/11/07 04:54:32;;;;;;;1.10;1.00;;;12.70;56.60;;;;;;20893;6732;117128;-85
2022/11/07 04:57:09;;;;;;;1.80;0.93;;;12.60;56.40;;;;;;20904;6739;116868;-86
2022/11/07 04:59:44;;;;;;;1.10;1.00;;;12.40;56.80;;;;;;20890;6735;116000;-85
2022/11/07 05:02:21;;;;;;;1.63;1.07;;;12.20;57.00;;;;;;20915;6726;118301;-86
2022/11/07 05:04:57;;;;;;;1.83;1.73;;;12.00;57.20;;;;;;20742;6726;304539;-86
2022/11/07 05:07:33;;;;;;;4.63;4.37;;;12.20;57.10;;;;;;21069;6711;116842;-86
2022/11/07 05:10:18;;;;;;;;;;;;;;;;;;;;;
2022/11/07 05:12:44;;;;;;;3.73;3.30;;;12.30;56.60;;;;;;20995;6728;119003;-88
2022/11/07 05:15:21;;;;;;;2.70;1.70;;;12.20;56.40;;;;;;20984;6728;116768;-85
2022/11/07 05:17:56;;;;;;;2.40;2.20;;;11.90;56.80;;;;;;20753;6735;296385;-87
2022/11/07 05:20:35;;;;;;;2.03;1.93;;;12.00;56.70;;;;;;20839;6741;118300;-85
2022/11/07 05:23:11;;;;;;;2.70;2.57;;;11.90;56.50;;;;;;20925;6726;119239;-85
2022/11/07 05:25:49;;;;;;;2.30;2.20;;;11.70;56.90;;;;;;20977;6726;117231;-84
2022/11/07 05:28:28;;;;;;;2.10;2.00;;;11.50;57.30;;;;;;20977;6726;118557;-85
2022/11/07 05:31:05;;;;;;;2.13;1.83;;;11.30;57.60;;;;;;20830;6726;117391;-88
2022/11/07 05:33:42;;;;;;;2.43;2.07;;;11.20;57.90;;;;;;20722;6767;305051;-88
2022/11/07 05:36:17;;;;;;;2.10;2.00;;;11.40;58.30;;;;;;20745;6728;305540;-85
2022/11/07 05:38:58;;;;;;;1.27;1.27;;;11.80;57.60;;;;;;20821;6766;118203;-86
2022/11/07 05:41:40;;;;;;;2.33;2.13;;;11.70;57.20;;;;;;20556;6734;310902;-85
2022/11/07 05:44:06;;;;;;;2.30;2.10;;;11.90;57.40;;;;;;20891;6734;122825;-84
2022/11/07 05:46:41;;;;;;;2.47;2.27;;;11.80;57.30;;;;;;20996;6719;117347;-86
2022/11/07 05:49:18;;;;;;;3.00;2.70;;;11.60;57.60;;;;;;20786;6719;288209;-83
2022/11/07 05:51:53;;;;;;;2.72;2.60;;;11.70;57.70;;;;;;20580;6775;336068;-85
2022/11/07 05:54:29;;;;;;;3.37;2.50;;;12.10;57.30;;;;;;20889;6734;119421;-85
2022/11/07 05:57:05;;;;;;;2.80;2.60;;;12.00;57.10;;;;;;20901;6731;116832;-88
2022/11/07 05:59:40;;;;;;;2.95;2.75;;;11.70;57.50;;;;;;20662;6731;280898;-90
2022/11/07 06:02:16;;;;;;;2.23;2.13;;;11.90;57.90;;;;;;20972;6720;119121;-86
2022/11/07 06:04:51;;;;;;;5.07;2.07;;;11.80;57.60;;;;;;20993;6721;116966;-87
2022/11/07 06:07:27;;;;;;;2.47;2.28;;;11.60;58.20;;;;;;20789;6721;275611;-90
2022/11/07 06:10:07;;;;;;;2.53;2.33;;;11.80;58.00;;;;;;20710;6721;277927;-83
2022/11/07 06:12:54;;;;;;;2.37;2.27;;;12.10;57.30;;;;;;20993;6721;117462;-86
2022/11/07 06:15:20;;;;;;;3.23;2.90;;;12.00;57.00;;;;;;20780;6721;276534;-86
2022/11/07 06:18:02;;;;;;;2.57;2.23;;;12.10;57.00;;;;;;20988;6721;119687;-90
2022/11/07 06:20:35;;;;;;;2.90;2.70;;;11.90;56.90;;;;;;20671;6721;307060;-88
2022/11/07 06:23:11;;;;;;;2.40;2.00;;;12.00;57.10;;;;;;20966;6727;118911;-89
2022/11/07 06:25:46;;;;;;;2.70;2.50;;;11.90;57.10;;;;;;20610;6805;310900;-87
2022/11/07 06:28:22;;;;;;;2.10;2.00;;;12.00;57.20;;;;;;20922;6724;118123;-88
2022/11/07 06:31:00;;;;;;;1.93;1.80;;;11.90;57.20;;;;;;20786;6739;117339;-88
2022/11/07 06:33:36;;;;;;;8.33;6.37;;;11.70;57.60;;;;;;20928;6771;116924;-86
2022/11/07 06:36:11;;;;;;;23.10;16.03;;;11.40;58.10;;;;;;20929;6730;118489;-86
2022/11/07 06:38:48;;;;;;;13.93;11.40;;;11.30;58.50;;;;;;20955;6730;120319;-88
2022/11/07 06:41:25;;;;;;;9.15;8.25;;;11.20;58.80;;;;;;20608;6730;310863;-87
2022/11/07 06:44:00;;;;;;;7.03;6.33;;;11.40;59.10;;;;;;20943;6730;117042;-92
2022/11/07 06:46:36;;;;;;;6.70;6.00;;;11.50;58.90;;;;;;20876;6745;117181;-87
2022/11/07 06:49:13;;;;;;;5.07;4.68;;;11.40;59.10;;;;;;20714;6741;335404;-87
2022/11/07 06:51:58;;;;;;;5.30;4.80;;;11.70;58.90;;;;;;20540;6797;306857;-86
2022/11/07 06:54:26;;;;;;;2.80;2.60;;;12.50;56.80;;;;;;20669;6739;306524;-86
2022/11/07 06:57:03;;;;;;;2.73;2.53;;;12.50;56.80;;;;;;20882;6722;116952;-87
2022/11/07 06:59:40;;;;;;;2.80;2.60;;;12.50;56.70;;;;;;20844;6755;116415;-85
2022/11/07 07:02:16;;;;;;;2.10;2.00;;;12.30;57.20;;;;;;20949;6730;121684;-89
2022/11/07 07:04:51;;;;;;;2.05;1.83;;;12.10;57.60;;;;;;20753;6715;309591;-85
2022/11/07 07:07:27;;;;;;;2.80;1.90;;;12.40;57.50;;;;;;20758;6714;276201;-85
2022/11/07 07:10:03;;;;;;;1.63;1.27;;;12.80;56.60;;;;;;20902;6714;119820;-91
2022/11/07 07:12:39;;;;;;;1.80;1.70;;;12.80;56.30;;;;;;20719;6774;277439;-86
2022/11/07 07:15:14;;;;;;;1.43;1.33;;;12.90;55.90;;;;;;20960;6714;118568;-85
2022/11/07 07:18:02;;;;;;;;;;;;;;;;;;;;;
2022/11/07 07:20:37;;;;;;;2.67;1.30;;;12.80;56.30;;;;;;20856;6715;117329;-87
2022/11/07 07:23:13;;;;;;;1.13;1.13;;;12.60;56.60;;;;;;20925;6730;117916;-88
2022/11/07 07:25:48;;;;;;;2.17;1.77;;;12.50;57.00;;;;;;20745;6715;340225;-88
2022/11/07 07:28:24;;;;;;;1.70;1.40;;;12.80;56.60;;;;;;20939;6715;117357;-86
2022/11/07 07:31:06;;;;;;;1.60;1.50;;;12.90;56.40;;;;;;20645;6715;289203;-87
2022/11/07 07:33:42;;;;;;;1.37;1.27;;;13.10;55.80;;;;;;20937;6718;67140;-87
2022/11/07 07:36:27;;;;;;;2.30;1.50;;;13.20;55.70;;;;;;20732;6715;321523;-87
2022/11/07 07:38:54;;;;;;;2.10;1.30;;;13.40;55.20;;;;;;20965;6715;117495;-89
2022/11/07 07:41:30;;;;;;;1.98;1.35;;;13.40;55.20;;;;;;20630;6715;277705;-89
2022/11/07 07:44:06;;;;;;;2.60;1.33;;;14.00;54.10;;;;;;20668;6789;282209;-87
2022/11/07 07:46:43;;;;;;;1.53;1.43;;;14.00;54.10;;;;;;20941;6726;117222;-88
2022/11/07 07:49:19;;;;;;;2.03;1.33;;;14.00;54.20;;;;;;20976;6709;116135;-87
2022/11/07 07:51:55;;;;;;;2.13;1.07;;;13.80;54.80;;;;;;20658;6797;118236;-87
2022/11/07 07:54:31;;;;;;;1.70;1.37;;;13.60;54.90;;;;;;20851;6755;117335;-88
2022/11/07 07:57:17;;;;;;;2.90;1.27;;;13.40;55.20;;;;;;20892;6733;117027;-87
2022/11/07 07:59:44;;;;;;;2.77;1.27;;;13.40;55.60;;;;;;20823;6748;121487;-86
2022/11/07 08:02:19;;;;;;;1.40;1.30;;;13.40;55.90;;;;;;20850;6789;117496;-86
2022/11/07 08:04:55;;;;;;;2.05;1.55;;;13.30;56.00;;;;;;20705;6730;300413;-87
2022/11/07 08:07:30;;;;;;;2.33;1.40;;;13.60;55.40;;;;;;20922;6730;117444;-85
2022/11/07 08:10:06;;;;;;;2.50;1.50;;;13.80;55.20;;;;;;20622;6733;278685;-86
2022/11/07 08:12:45;;;;;;;3.23;1.33;;;14.00;54.40;;;;;;20878;6745;118717;-86
2022/11/07 08:15:22;;;;;;;1.63;1.50;;;14.20;54.50;;;;;;20933;6732;119098;-86
2022/11/07 08:18:06;;;;;;;2.90;1.43;;;13.90;54.90;;;;;;20859;6750;116978;-86
2022/11/07 08:20:43;;;;;;;3.63;1.60;;;14.00;55.00;;;;;;20615;6738;278461;-85
2022/11/07 08:23:18;;;;;;;2.33;1.75;;;14.20;54.10;;;;;;20702;6777;305005;-85
2022/11/07 08:25:54;;;;;;;2.80;1.60;;;14.60;53.50;;;;;;20697;6748;306901;-85
2022/11/07 08:28:29;;;;;;;3.67;1.50;;;14.90;53.00;;;;;;20880;6731;117045;-85
2022/11/07 08:31:05;;;;;;;3.33;1.65;;;14.90;52.80;;;;;;20578;6731;291120;-85
2022/11/07 08:33:44;;;;;;;2.20;1.60;;;14.90;52.30;;;;;;20734;6720;305983;-85
2022/11/07 08:36:19;;;;;;;3.10;1.77;;;15.10;51.80;;;;;;20611;6745;281103;-87
2022/11/07 08:38:52;;;;;;;1.97;1.40;;;15.30;51.40;;;;;;20827;6749;117029;-85
2022/11/07 08:41:28;;;;;;;2.53;1.60;;;15.20;52.40;;;;;;20454;6765;279436;-85
2022/11/07 08:44:13;;;;;;;2.63;1.33;;;15.10;51.60;;;;;;20925;6746;117287;-86
2022/11/07 08:46:39;;;;;;;1.53;1.30;;;15.00;51.90;;;;;;20944;6737;117183;-85
2022/11/07 08:49:17;;;;;;;1.70;1.40;;;14.80;52.60;;;;;;20939;6738;117963;-86
2022/11/07 08:51:53;;;;;;;2.73;1.50;;;14.50;53.00;;;;;;20553;6778;279048;-86
2022/11/07 08:54:40;;;;;;;;;;;;;;;;;;;;;
2022/11/07 08:57:06;;;;;;;3.13;1.70;;;14.50;53.00;;;;;;20983;6723;116056;-85
2022/11/07 08:59:42;;;;;;;2.57;1.50;;;14.50;53.00;;;;;;20977;6723;123155;-84
2022/11/07 09:02:17;;;;;;;1.50;1.23;;;14.40;53.40;;;;;;20943;6739;118659;-84
2022/11/07 09:04:53;;;;;;;2.77;1.67;;;14.20;53.80;;;;;;20867;6733;119270;-92
2022/11/07 09:07:29;;;;;;;2.45;1.40;;;14.20;54.10;;;;;;20757;6729;339317;-84
2022/11/07 09:10:06;;;;;;;2.47;1.37;;;14.50;53.60;;;;;;20931;6729;117109;-85
2022/11/07 09:12:49;;;;;;;1.80;1.50;;;14.60;53.50;;;;;;21044;6713;118099;-84
2022/11/07 09:15:25;;;;;;;2.47;1.33;;;14.50;53.70;;;;;;20958;6730;116030;-85
2022/11/07 09:18:04;;;;;;;1.30;1.03;;;14.40;54.00;;;;;;20952;6736;116835;-86
2022/11/07 09:20:40;;;;;;;2.90;1.60;;;14.40;54.30;;;;;;20642;6720;276637;-85
2022/11/07 09:23:18;;;;;;;4.00;1.80;;;14.70;53.30;;;;;;20721;6720;304029;-84
2022/11/07 09:25:54;;;;;;;3.37;1.70;;;15.10;52.50;;;;;;21016;6720;116876;-84
2022/11/07 09:28:29;;;;;;;1.87;1.30;;;15.20;52.50;;;;;;20976;6720;116686;-85
2022/11/07 09:31:09;;;;;;;2.83;1.33;;;15.00;53.30;;;;;;20877;6719;117486;-85
2022/11/07 09:33:54;;;;;;;2.40;1.57;;;14.90;53.20;;;;;;21018;6725;116598;-84
2022/11/07 09:36:27;;;;;;;3.67;2.20;;;15.10;52.80;;;;;;20761;6725;305591;-84
2022/11/07 09:38:58;;;;;;;2.77;1.50;;;15.10;52.70;;;;;;21003;6725;115953;-84
2022/11/07 09:41:42;;;;;;;3.03;2.03;;;15.20;52.80;;;;;;20513;6735;337483;-85
2022/11/07 09:44:27;;;;;;;2.63;1.70;;;15.50;51.80;;;;;;20858;6740;119714;-85
2022/11/07 09:47:17;;;;;;;1.90;1.77;;;15.50;51.80;;;;;;20785;6797;67558;-85
2022/11/07 09:49:55;;;;;;;5.43;1.63;;;15.40;52.10;;;;;;20907;6736;116477;-83
2022/11/07 09:52:36;;;;;;;4.07;1.57;;;15.20;52.40;;;;;;20945;6734;118452;-84
2022/11/07 09:55:16;;;;;;;2.83;1.50;;;15.20;52.80;;;;;;20963;6734;121754;-85
2022/11/07 09:57:59;;;;;;;2.25;1.58;;;15.00;52.80;;;;;;20746;6790;335480;-96
2022/11/07 10:00:34;;;;;;;2.37;1.40;;;15.40;52.40;;;;;;20857;6778;117327;-84
2022/11/07 10:03:11;;;;;;;2.00;1.43;;;15.40;52.40;;;;;;20884;6750;117127;-89
2022/11/07 10:05:57;;;;;;;1.60;1.50;;;15.30;52.70;;;;;;20897;6738;117111;-85
2022/11/07 10:08:39;;;;;;;4.57;1.60;;;15.20;52.90;;;;;;20769;6733;335118;-87
2022/11/07 10:11:41;;;;;;;2.33;1.50;;;15.40;51.60;;;;;;20816;6733;117835;-84
2022/11/07 10:14:19;;;;;;;2.97;1.50;;;15.50;51.70;;;;;;20724;6736;126407;-87
2022/11/07 10:17:18;;;;;;;2.78;1.60;;;15.40;52.20;;;;;;20757;6731;309653;-88
2022/11/07 10:20:20;;;;;;;1.87;1.50;;;15.60;52.00;;;;;;20852;6743;117047;-85
2022/11/07 10:23:16;;;;;;;2.57;1.40;;;15.60;51.50;;;;;;20986;6727;116602;-86
2022/11/07 10:26:01;;;;;;;2.07;1.40;;;15.50;52.50;;;;;;20987;6727;117213;-84
2022/11/07 10:28:34;;;;;;;2.00;1.30;;;15.30;52.70;;;;;;20967;6709;117270;-85
2022/11/07 10:31:10;;;;;;;2.50;1.70;;;15.50;52.00;;;;;;20626;6709;309987;-85
2022/11/07 10:34:01;;;;;;;4.53;1.37;;;15.50;51.80;;;;;;21007;6715;116089;-83
2022/11/07 10:36:33;;;;;;;2.10;1.57;;;15.90;50.70;;;;;;20646;6745;332330;-84
2022/11/07 10:39:15;;;;;;;1.63;1.40;;;15.90;51.00;;;;;;20827;6751;118003;-87
2022/11/07 10:42:10;;;;;;;2.37;1.60;;;16.00;51.20;;;;;;20499;6799;278520;-90
2022/11/07 10:44:46;;;;;;;4.20;1.20;;;16.20;50.60;;;;;;20951;6729;117013;-87
2022/11/07 10:47:23;;;;;;;2.87;1.73;;;16.20;51.00;;;;;;20677;6729;310649;-86
2022/11/07 10:50:00;;;;;;;2.50;1.30;;;16.40;50.20;;;;;;20844;6729;117263;-87
2022/11/07 10:52:38;;;;;;;2.60;1.57;;;16.40;50.50;;;;;;20932;6723;117899;-86
2022/11/07 10:55:15;;;;;;;2.17;1.50;;;16.20;51.20;;;;;;20941;6723;116695;-89
2022/11/07 10:57:58;;;;;;;1.80;1.30;;;16.20;51.20;;;;;;20879;6738;116887;-87
2022/11/07 11:00:33;;;;;;;3.70;1.70;;;16.10;51.40;;;;;;20268;6809;309513;-86
2022/11/07 11:03:15;;;;;;;2.70;1.50;;;16.30;50.70;;;;;;20954;6728;117417;-86
2022/11/07 11:05:54;;;;;;;3.00;1.70;;;16.60;50.90;;;;;;20688;6738;333503;-86
2022/11/07 11:08:31;;;;;;;3.37;1.70;;;16.50;50.20;;;;;;20711;6738;285450;-85
2022/11/07 11:11:11;;;;;;;4.17;1.90;;;16.90;49.80;;;;;;20566;6723;277150;-84
2022/11/07 11:13:47;;;;;;;2.60;1.70;;;17.20;49.20;;;;;;20697;6752;333579;-85
2022/11/07 11:16:29;;;;;;;1.83;1.63;;;17.40;49.00;;;;;;20906;6726;117032;-87
2022/11/07 11:19:01;;;;;;;2.72;1.67;;;17.30;49.30;;;;;;20754;6726;307840;-86
2022/11/07 11:21:37;;;;;;;4.73;1.90;;;17.20;49.20;;;;;;20615;6726;306972;-85
2022/11/07 11:24:13;;;;;;;3.78;1.60;;;17.40;48.90;;;;;;20715;6735;337281;-86
2022/11/07 11:26:48;;;;;;;2.10;1.50;;;17.60;48.50;;;;;;20668;6767;279217;-86
2022/11/07 11:29:30;;;;;;;1.83;1.50;;;17.80;48.30;;;;;;20780;6711;327412;-85
2022/11/07 11:32:07;;;;;;;2.83;1.43;;;17.90;47.90;;;;;;20965;6728;116993;-85
2022/11/07 11:34:55;;;;;;;1.73;1.20;;;17.70;48.10;;;;;;20926;6751;122890;-86
2022/11/07 11:37:31;;;;;;;1.83;1.07;;;17.40;48.70;;;;;;20992;6721;121694;-83
2022/11/07 11:40:07;;;;;;;2.55;1.50;;;17.10;49.30;;;;;;20732;6721;336042;-85
2022/11/07 11:43:03;;;;;;;2.67;1.10;;;17.20;48.80;;;;;;20773;6726;308386;-84
2022/11/07 11:45:38;;;;;;;1.90;1.20;;;17.50;48.10;;;;;;20921;6732;117388;-84
2022/11/07 11:48:25;;;;;;;3.60;1.03;;;17.40;48.20;;;;;;20912;6745;116943;-83
2022/11/07 11:51:13;;;;;;;2.97;1.12;;;17.10;48.60;;;;;;20281;6771;337619;-82
2022/11/07 11:54:01;;;;;;;1.33;0.97;;;17.50;47.10;;;;;;20754;6729;277077;-83
2022/11/07 11:56:42;;;;;;;;;;;;;;;;;;;;;
2022/11/07 11:59:25;;;;;;;1.40;0.93;;;17.20;48.50;;;;;;20965;6734;117728;-84
2022/11/07 12:02:24;;;;;;;1.57;0.90;;;17.20;48.00;;;;;;20991;6721;123692;-84
2022/11/07 12:05:06;;;;;;;2.30;1.03;;;16.90;48.60;;;;;;20721;6744;291471;-84
2022/11/07 12:07:52;;;;;;;2.10;1.10;;;17.20;48.50;;;;;;20719;6745;283631;-84
2022/11/07 12:10:51;;;;;;;1.63;1.17;;;17.40;48.00;;;;;;20797;6741;126362;-85
2022/11/07 12:13:40;;;;;;;2.60;1.23;;;17.40;47.90;;;;;;20934;6724;117086;-88
2022/11/07 12:16:46;;;;;;;2.37;1.20;;;17.10;48.30;;;;;;20749;6724;335242;-84
2022/11/07 12:19:27;;;;;;;2.03;1.00;;;17.30;47.70;;;;;;20785;6709;308537;-84
2022/11/07 12:22:43;;;;;;;3.93;1.10;;;17.70;47.10;;;;;;20940;6730;127769;-84
2022/11/07 12:25:31;;;;;;;3.80;1.03;;;17.60;47.40;;;;;;20994;6722;118237;-84
2022/11/07 12:28:27;;;;;;;2.00;1.00;;;17.40;48.00;;;;;;20991;6716;120254;-85
2022/11/07 12:31:25;;;;;;;3.70;1.37;;;17.30;48.60;;;;;;20527;6743;309011;-84
2022/11/07 12:34:07;;;;;;;2.33;1.20;;;17.60;48.00;;;;;;19888;7073;118985;-85
2022/11/07 12:36:59;;;;;;;3.20;1.37;;;17.80;48.10;;;;;;20457;6775;277325;-85
2022/11/07 12:39:35;;;;;;;2.47;1.20;;;18.00;46.30;;;;;;20735;6771;309419;-87
2022/11/07 12:42:17;;;;;;;2.60;1.23;;;18.50;45.90;;;;;;20968;6709;117966;-85
2022/11/07 12:45:12;;;;;;;4.87;1.58;;;18.50;46.10;;;;;;20732;6768;305130;-86
2022/11/07 12:48:07;;;;;;;3.47;1.25;;;18.60;45.00;;;;;;20782;6716;338360;-86
2022/11/07 12:50:43;;;;;;;1.90;1.10;;;18.90;44.40;;;;;;20583;6734;307849;-86
2022/11/07 12:53:35;;;;;;;2.75;1.30;;;19.10;43.90;;;;;;20768;6722;281080;-87
2022/11/07 12:56:10;;;;;;;2.27;1.03;;;19.30;44.40;;;;;;20996;6719;116885;-86
2022/11/07 12:58:46;;;;;;;2.50;1.20;;;19.10;45.10;;;;;;20918;6745;116585;-87
2022/11/07 13:01:28;;;;;;;1.92;1.10;;;18.90;45.80;;;;;;20651;6767;276646;-86
2022/11/07 13:04:21;;;;;;;3.10;1.10;;;19.00;44.80;;;;;;21045;6721;115811;-86
2022/11/07 13:07:10;;;;;;;3.20;1.20;;;18.90;45.20;;;;;;20821;6720;274352;-86
2022/11/07 13:09:46;;;;;;;1.80;0.97;;;19.10;44.10;;;;;;20965;6714;116528;-86
2022/11/07 13:12:27;;;;;;;1.93;1.10;;;19.00;44.60;;;;;;21050;6716;117040;-86
2022/11/07 13:15:06;;;;;;;2.50;1.03;;;18.90;45.10;;;;;;21080;6716;116703;-84
2022/11/07 13:17:52;;;;;;;;;;;;;;;;;;;;;
2022/11/07 13:20:20;;;;;;;1.40;1.00;;;18.50;45.80;;;;;;20986;6716;117168;-86
2022/11/07 13:22:58;;;;;;;3.22;1.10;;;18.50;43.90;;;;;;20774;6731;276922;-86
2022/11/07 13:25:34;;;;;;;1.70;0.93;;;18.50;43.90;;;;;;20870;6748;117068;-86
2022/11/07 13:28:22;;;;;;;1.50;1.03;;;18.50;44.30;;;;;;20895;6748;116827;-84
2022/11/07 13:30:58;;;;;;;2.53;1.20;;;18.40;44.80;;;;;;20454;6742;284183;-83
2022/11/07 13:33:33;;;;;;;2.67;1.20;;;18.60;43.20;;;;;;20617;6758;332155;-83
2022/11/07 13:36:23;;;;;;;1.97;1.03;;;18.90;42.70;;;;;;20797;6715;276658;-86
2022/11/07 13:39:00;;;;;;;1.90;1.00;;;19.00;42.30;;;;;;20795;6715;306316;-85
2022/11/07 13:41:36;;;;;;;1.20;1.00;;;19.20;42.20;;;;;;20848;6715;117053;-85
2022/11/07 13:44:25;;;;;;;2.42;1.05;;;18.90;42.60;;;;;;20780;6715;276598;-85
2022/11/07 13:47:01;;;;;;;1.00;0.87;;;18.80;42.30;;;;;;20891;6745;117542;-87
2022/11/07 13:49:37;;;;;;;1.07;0.90;;;18.50;43.00;;;;;;20793;6760;116973;-87
2022/11/07 13:52:21;;;;;;;4.37;1.10;;;18.20;43.80;;;;;;20854;6745;117457;-88